Millennium — 9HJF9 — position and weather

sailwx.info

Track history (hours):
 
Tides and Currents Weather Stations Pressure Air Temp Water Temp Dewpoint Dewpoint Depression Visibility Wind Speed Wind Dir Waves Ship Positions

Millennium

Last reported at 2018-Sep-18 23:00 UTC. Time now 2018-Sep-19 03:01 UTC.
Position N 54°54' W 156°06'.

Length 294 m; draft 8.3 m.

Type: Passenger vessel. MMSI: 249055000.

Wind from 350 at 15 knots

Barometer 1020.0 mb
Air temperature 13.0 ° C

Date/timePositionNaut miles runAvg speedWind from/ knotsBaromVisibWave heightAir tempDewpointWater temp
2018-Sep-18 23:00N 54°54' W 156°06'   350 / 151020.0 13.0
2018-Sep-16 05:01N 54°23' W 131°53'119.3
2018-Sep-16 04:58N 54°23' W 131°51'919.4
2018-Sep-16 04:30N 54°19' W 131°37'919.4
2018-Sep-16 04:03N 54°15' W 131°23'119.8
2018-Sep-16 04:00N 54°14' W 131°23'1020.0
2018-Sep-16 03:30N 54°05' W 131°16'919.9
2018-Sep-16 03:04N 53°57' W 131°11'119.9
2018-Sep-16 03:01N 53°56' W 131°11'1019.9
2018-Sep-16 02:31N 53°47' W 131°05'919.8
2018-Sep-16 02:03N 53°38' W 130°59'119.7
2018-Sep-16 02:01N 53°37' W 130°59'1019.5
2018-Sep-16 01:31N 53°28' W 130°52'919.7
2018-Sep-16 01:03N 53°20' W 130°45'120.9
2018-Sep-16 01:00N 53°20' W 130°45'8321.5
2018-Sep-15 21:09N 52°07' W 129°38'221.7
2018-Sep-15 21:03N 52°05' W 129°36'121.7
2018-Sep-15 21:00N 52°04' W 129°35'1020.9
2018-Sep-15 20:30N 51°56' W 129°25'921.0
2018-Sep-15 20:03N 51°49' W 129°15'121.4
2018-Sep-15 20:01N 51°48' W 129°14'1121.4
2018-Sep-15 19:30N 51°40' W 129°03'1021.2
2018-Sep-15 19:03N 51°32' W 128°54'120.4
2018-Sep-15 19:01N 51°31' W 128°53'1020.5
2018-Sep-15 18:31N 51°23' W 128°42'919.9
2018-Sep-15 18:04N 51°17' W 128°33'119.3
2018-Sep-15 18:01N 51°16' W 128°32'1020.1
2018-Sep-15 17:31N 51°11' W 128°18'920.6
2018-Sep-15 17:04N 51°06' W 128°06'119.9
2018-Sep-15 17:00N 51°05' W 128°04'1019.3
2018-Sep-15 16:30N 51°00' W 127°51'714.3
2018-Sep-15 16:00N 50°56' W 127°42'1020.6
2018-Sep-15 15:30N 50°50' W 127°28'1020.5
2018-Sep-15 15:01N 50°46' W 127°14'1120.6
2018-Sep-15 14:30N 50°42' W 126°58'1018.9
2018-Sep-15 14:00N 50°37' W 126°46'815.5
2018-Sep-15 13:27N 50°31' W 126°37'1120.4
2018-Sep-15 12:55N 50°30' W 126°20'3518.9
2018-Sep-15 11:05N 50°20' W 125°27'015.7
2018-Sep-15 11:03N 50°20' W 125°27'113.1
2018-Sep-15 10:58N 50°20' W 125°25'817.9
2018-Sep-15 10:30N 50°12' W 125°22'612.5
2018-Sep-15 10:03N 50°07' W 125°18'110.6
2018-Sep-15 10:00N 50°06' W 125°18'611.1
2018-Sep-15 09:30N 50°02' W 125°13'612.1
2018-Sep-15 09:03N 49°57' W 125°08'0 9.7
2018-Sep-15 09:00N 49°57' W 125°08'5 9.1
2018-Sep-15 08:30N 49°54' W 125°02'4 9.1
2018-Sep-15 08:03N 49°51' W 124°58'0 9.6
2018-Sep-15 08:00N 49°50' W 124°57'510.2
2018-Sep-15 07:30N 49°47' W 124°52'511.5
2018-Sep-15 07:03N 49°43' W 124°46'111.7
2018-Sep-15 07:00N 49°43' W 124°46'611.5
2018-Sep-15 06:30N 49°38' W 124°40'511.1
2018-Sep-15 06:01N 49°34' W 124°34'010.6
2018-Sep-15 05:59N 49°34' W 124°34'611.2
2018-Sep-15 05:26N 49°29' W 124°29'511.6
2018-Sep-15 05:01N 49°27' W 124°22'012.8
2018-Sep-15 04:59N 49°26' W 124°22'612.1
2018-Sep-15 04:30N 49°24' W 124°13'511.7
2018-Sep-15 04:03N 49°23' W 124°06'112.3
2018-Sep-15 04:00N 49°23' W 124°05'611.3
2018-Sep-15 03:30N 49°21' W 123°57'3 7.7
2018-Sep-15 03:03N 49°20' W 123°51'0 6.0
2018-Sep-15 03:00N 49°20' W 123°51'3 7.1
2018-Sep-15 02:30N 49°19' W 123°46'510.0
2018-Sep-15 02:03N 49°19' W 123°39'0 9.8
2018-Sep-15 02:00N 49°19' W 123°38'510.3
2018-Sep-15 01:30N 49°20' W 123°30'4 9.8
2018-Sep-15 01:03N 49°19' W 123°23'110.1
2018-Sep-15 01:00N 49°19' W 123°22'5 9.9
2018-Sep-15 00:30N 49°19' W 123°15'510.2
2018-Sep-15 00:03N 49°19' W 123°08'0 9.7
2018-Sep-15 00:00N 49°18' W 123°07'1 2.5
2018-Sep-14 23:30N 49°17' W 123°07'0 0.0
2018-Sep-14 23:03N 49°17' W 123°07'0 0.0
2018-Sep-14 23:00N 49°17' W 123°07'0 0.0
2018-Sep-14 22:30N 49°17' W 123°07'0 0.0
2018-Sep-14 22:00N 49°17' W 123°07'0 0.0
2018-Sep-14 21:30N 49°17' W 123°07'0 0.0
2018-Sep-14 21:03N 49°17' W 123°07'0 0.0
2018-Sep-14 21:00N 49°17' W 123°07'0 0.0
2018-Sep-14 20:30N 49°17' W 123°07'0 0.0
2018-Sep-14 20:03N 49°17' W 123°07'0 0.0
2018-Sep-14 19:57N 49°17' W 123°07'0 0.0
2018-Sep-14 19:28N 49°17' W 123°07'0 0.0
2018-Sep-14 19:01N 49°17' W 123°07'0 0.0
2018-Sep-14 18:58N 49°17' W 123°07'0 0.0
2018-Sep-14 18:27N 49°17' W 123°07'0 0.0
2018-Sep-14 18:03N 49°17' W 123°07'0 0.0
2018-Sep-14 18:00N 49°17' W 123°07'0 0.0
2018-Sep-14 17:30N 49°17' W 123°07'0 0.0
2018-Sep-14 17:02N 49°17' W 123°07'0 0.0
2018-Sep-14 16:59N 49°17' W 123°07'0 0.0
2018-Sep-14 16:29N 49°17' W 123°07'0 0.0
2018-Sep-14 16:02N 49°17' W 123°07'0 0.0
2018-Sep-14 15:59N 49°17' W 123°07'0 0.0
2018-Sep-14 15:28N 49°17' W 123°07'0 0.0
2018-Sep-14 15:03N 49°17' W 123°07'0 0.0
2018-Sep-14 15:00N 49°17' W 123°07'0 0.0
2018-Sep-14 14:28N 49°17' W 123°07'0 0.0
2018-Sep-14 14:01N 49°17' W 123°07'1 1.7
2018-Sep-14 13:30N 49°18' W 123°07'4 8.7
2018-Sep-14 13:03N 49°19' W 123°13'111.1
2018-Sep-14 13:00N 49°19' W 123°13'611.2
2018-Sep-14 12:29N 49°18' W 123°22'511.3
2018-Sep-14 12:03N 49°19' W 123°30'111.5
2018-Sep-14 12:00N 49°19' W 123°31'510.9
2018-Sep-14 11:30N 49°19' W 123°39'511.3
2018-Sep-14 11:03N 49°19' W 123°47'111.3
2018-Sep-14 11:00N 49°19' W 123°48'611.4
2018-Sep-14 10:30N 49°21' W 123°56'511.1
2018-Sep-14 10:03N 49°22' W 124°04'111.3
2018-Sep-14 10:00N 49°22' W 124°04'611.4
2018-Sep-14 09:30N 49°24' W 124°13'510.3
2018-Sep-14 09:03N 49°25' W 124°20'1 9.7
2018-Sep-14 08:59N 49°26' W 124°21'5 9.9
2018-Sep-14 08:30N 49°28' W 124°27'5 9.8
2018-Sep-14 08:01N 49°31' W 124°32'0 9.9
2018-Sep-14 07:59N 49°32' W 124°32'510.5
2018-Sep-14 07:30N 49°35' W 124°38'510.6
2018-Sep-14 07:03N 49°39' W 124°43'110.6
2018-Sep-14 07:00N 49°39' W 124°43'510.1
2018-Sep-14 06:30N 49°44' W 124°47'4 9.9
2018-Sep-14 06:03N 49°47' W 124°52'0 9.2
2018-Sep-14 06:00N 49°47' W 124°52'5 9.5
2018-Sep-14 05:29N 49°51' W 124°58'4 9.8
2018-Sep-14 05:03N 49°53' W 125°03'110.2
2018-Sep-14 05:00N 49°54' W 125°03'611.6
2018-Sep-14 04:30N 49°58' W 125°10'612.8
2018-Sep-14 04:03N 50°03' W 125°14'113.9
2018-Sep-14 04:00N 50°03' W 125°15'713.5
2018-Sep-14 03:30N 50°09' W 125°21'716.2
2018-Sep-14 03:03N 50°16' W 125°24'116.6
2018-Sep-14 03:00N 50°17' W 125°24'2412.0
2018-Sep-14 01:00N 50°24' W 126°00'1644.7 150 / 111011.010.8 13.710.412.5
2018-Sep-14 00:38N 50°30' W 126°24'518.5
2018-Sep-14 00:22N 50°30' W 126°31'514.8
2018-Sep-14 00:02N 50°31' W 126°39'115.0
2018-Sep-13 23:58N 50°32' W 126°41'814.8
2018-Sep-13 23:26N 50°38' W 126°48'718.2
2018-Sep-13 23:03N 50°42' W 126°56'118.9
2018-Sep-13 23:00N 50°43' W 126°58'918.2
2018-Sep-13 22:29N 50°46' W 127°12'818.1
2018-Sep-13 22:03N 50°49' W 127°23'118.3
2018-Sep-13 22:00N 50°49' W 127°24'918.1
2018-Sep-13 21:30N 50°54' W 127°37'817.5
2018-Sep-13 21:03N 50°58' W 127°47'118.3
2018-Sep-13 21:00N 50°59' W 127°48'917.2
2018-Sep-13 20:30N 51°03' W 128°00'817.2
2018-Sep-13 20:03N 51°07' W 128°11'117.5
2018-Sep-13 20:00N 51°07' W 128°12'816.9
2018-Sep-13 19:30N 51°12' W 128°23'715.7
2018-Sep-13 19:03N 51°15' W 128°33'117.4
2018-Sep-13 19:00N 51°16' W 128°34'917.0
2018-Sep-13 18:30N 51°20' W 128°46'817.1
2018-Sep-13 18:03N 51°25' W 128°55'117.0
2018-Sep-13 18:00N 51°26' W 128°56'816.5
2018-Sep-13 17:30N 51°32' W 129°04'816.9
2018-Sep-13 17:03N 51°39' W 129°11'116.2
2018-Sep-13 17:00N 51°39' W 129°12'816.8
2018-Sep-13 16:30N 51°47' W 129°19'817.1
2018-Sep-13 16:03N 51°53' W 129°26'117.3
2018-Sep-13 16:01N 51°54' W 129°27'917.0
2018-Sep-13 15:30N 52°01' W 129°34'816.6
2018-Sep-13 15:03N 52°07' W 129°41'116.6
2018-Sep-13 15:00N 52°08' W 129°42'18 8.9
2018-Sep-13 13:00N 52°24' W 129°54'5026.1 050 / 161010.027.0 13.010.416.5
2018-Sep-13 11:04N 53°08' W 130°35'417.3
2018-Sep-13 10:49N 53°11' W 130°38'617.1
2018-Sep-13 10:28N 53°17' W 130°42'717.3
2018-Sep-13 10:03N 53°24' W 130°45'117.2
2018-Sep-13 10:00N 53°25' W 130°45'917.2
2018-Sep-13 09:30N 53°33' W 130°49'817.2
2018-Sep-13 09:03N 53°40' W 130°53'117.1
2018-Sep-13 09:00N 53°41' W 130°54'817.0
2018-Sep-13 08:30N 53°49' W 130°59'817.0
2018-Sep-13 08:03N 53°57' W 131°00'117.5
2018-Sep-13 08:00N 53°58' W 131°01'917.0
2018-Sep-13 07:30N 54°06' W 131°02'817.1
2018-Sep-13 07:03N 54°14' W 131°02'116.7
2018-Sep-13 07:00N 54°15' W 131°01'611.9
2018-Sep-13 06:30N 54°21' W 130°60'715.4
2018-Sep-13 06:03N 54°25' W 131°08'116.5
2018-Sep-13 06:00N 54°26' W 131°09'816.2
2018-Sep-13 05:30N 54°33' W 131°17'716.2
2018-Sep-13 05:03N 54°40' W 131°15'116.0
2018-Sep-13 05:00N 54°41' W 131°15'816.3
2018-Sep-13 04:30N 54°48' W 131°10'716.0
2018-Sep-13 04:03N 54°55' W 131°07'116.4
2018-Sep-13 04:00N 54°56' W 131°07'211 8.1
2018-Sep-12 02:00N 57°48' W 134°48'29 2.4 340 / 131011.027.0 18.0 1.812.5
2018-Sep-11 13:56N 58°08' W 135°28'1 1.4
2018-Sep-11 13:27N 58°09' W 135°28'3 6.8
2018-Sep-11 13:03N 58°09' W 135°23'0 7.3
2018-Sep-11 13:00N 58°09' W 135°22'4 7.5
2018-Sep-11 12:29N 58°09' W 135°15'28 2.3
2018-Sep-11 00:00N 58°18' W 134°24'72 3.1 290 / 61005.027.0 22.0 2.712.0
2018-Sep-10 01:00N 59°24' W 135°18'76 6.0 010 / 221007.027.0 18.5 2.610.0
2018-Sep-09 12:25N 58°08' W 135°05'916.4
2018-Sep-09 11:52N 58°11' W 135°22'616.7
2018-Sep-09 11:30N 58°14' W 135°32'817.0
2018-Sep-09 11:03N 58°18' W 135°45'116.8
2018-Sep-09 11:00N 58°18' W 135°46'816.5
2018-Sep-09 10:30N 58°20' W 136°01'13914.6
2018-Sep-09 01:00N 59°30' W 139°54'   270 / 51008.027.0 19.0 2.012.5
Track history (hours):
 
Tides and Currents Weather Stations Pressure Air Temp Water Temp Dewpoint Dewpoint Depression Visibility Wind Speed Wind Dir Waves Ship Positions

Millennium

Last reported at 2018-Sep-18 23:00 UTC. Time now 2018-Sep-19 03:01 UTC.
Position N 54°54' W 156°06'.

Length 294 m; draft 8.3 m.

Type: Passenger vessel. MMSI: 249055000.

Wind from 350 at 15 knots

Barometer 1020.0 mb
Air temperature 13.0 ° C

Date/timePositionNaut miles runAvg speedWind from/ knotsBaromVisibWave heightAir tempDewpointWater temp
2018-Sep-18 23:00N 54°54' W 156°06'   350 / 151020.0 13.0
2018-Sep-16 05:01N 54°23' W 131°53'119.3
2018-Sep-16 04:58N 54°23' W 131°51'919.4
2018-Sep-16 04:30N 54°19' W 131°37'919.4
2018-Sep-16 04:03N 54°15' W 131°23'119.8
2018-Sep-16 04:00N 54°14' W 131°23'1020.0
2018-Sep-16 03:30N 54°05' W 131°16'919.9
2018-Sep-16 03:04N 53°57' W 131°11'119.9
2018-Sep-16 03:01N 53°56' W 131°11'1019.9
2018-Sep-16 02:31N 53°47' W 131°05'919.8
2018-Sep-16 02:03N 53°38' W 130°59'119.7
2018-Sep-16 02:01N 53°37' W 130°59'1019.5
2018-Sep-16 01:31N 53°28' W 130°52'919.7
2018-Sep-16 01:03N 53°20' W 130°45'120.9
2018-Sep-16 01:00N 53°20' W 130°45'8321.5
2018-Sep-15 21:09N 52°07' W 129°38'221.7
2018-Sep-15 21:03N 52°05' W 129°36'121.7
2018-Sep-15 21:00N 52°04' W 129°35'1020.9
2018-Sep-15 20:30N 51°56' W 129°25'921.0
2018-Sep-15 20:03N 51°49' W 129°15'121.4
2018-Sep-15 20:01N 51°48' W 129°14'1121.4
2018-Sep-15 19:30N 51°40' W 129°03'1021.2
2018-Sep-15 19:03N 51°32' W 128°54'120.4
2018-Sep-15 19:01N 51°31' W 128°53'1020.5
2018-Sep-15 18:31N 51°23' W 128°42'919.9
2018-Sep-15 18:04N 51°17' W 128°33'119.3
2018-Sep-15 18:01N 51°16' W 128°32'1020.1
2018-Sep-15 17:31N 51°11' W 128°18'920.6
2018-Sep-15 17:04N 51°06' W 128°06'119.9
2018-Sep-15 17:00N 51°05' W 128°04'1019.3
2018-Sep-15 16:30N 51°00' W 127°51'714.3
2018-Sep-15 16:00N 50°56' W 127°42'1020.6
2018-Sep-15 15:30N 50°50' W 127°28'1020.5
2018-Sep-15 15:01N 50°46' W 127°14'1120.6
2018-Sep-15 14:30N 50°42' W 126°58'1018.9
2018-Sep-15 14:00N 50°37' W 126°46'815.5
2018-Sep-15 13:27N 50°31' W 126°37'1120.4
2018-Sep-15 12:55N 50°30' W 126°20'3518.9
2018-Sep-15 11:05N 50°20' W 125°27'015.7
2018-Sep-15 11:03N 50°20' W 125°27'113.1
2018-Sep-15 10:58N 50°20' W 125°25'817.9
2018-Sep-15 10:30N 50°12' W 125°22'612.5
2018-Sep-15 10:03N 50°07' W 125°18'110.6
2018-Sep-15 10:00N 50°06' W 125°18'611.1
2018-Sep-15 09:30N 50°02' W 125°13'612.1
2018-Sep-15 09:03N 49°57' W 125°08'0 9.7
2018-Sep-15 09:00N 49°57' W 125°08'5 9.1
2018-Sep-15 08:30N 49°54' W 125°02'4 9.1
2018-Sep-15 08:03N 49°51' W 124°58'0 9.6
2018-Sep-15 08:00N 49°50' W 124°57'510.2
2018-Sep-15 07:30N 49°47' W 124°52'511.5
2018-Sep-15 07:03N 49°43' W 124°46'111.7
2018-Sep-15 07:00N 49°43' W 124°46'611.5
2018-Sep-15 06:30N 49°38' W 124°40'511.1
2018-Sep-15 06:01N 49°34' W 124°34'010.6
2018-Sep-15 05:59N 49°34' W 124°34'611.2
2018-Sep-15 05:26N 49°29' W 124°29'511.6
2018-Sep-15 05:01N 49°27' W 124°22'012.8
2018-Sep-15 04:59N 49°26' W 124°22'612.1
2018-Sep-15 04:30N 49°24' W 124°13'511.7
2018-Sep-15 04:03N 49°23' W 124°06'112.3
2018-Sep-15 04:00N 49°23' W 124°05'611.3
2018-Sep-15 03:30N 49°21' W 123°57'3 7.7
2018-Sep-15 03:03N 49°20' W 123°51'0 6.0
2018-Sep-15 03:00N 49°20' W 123°51'3 7.1
2018-Sep-15 02:30N 49°19' W 123°46'510.0
2018-Sep-15 02:03N 49°19' W 123°39'0 9.8
2018-Sep-15 02:00N 49°19' W 123°38'510.3
2018-Sep-15 01:30N 49°20' W 123°30'4 9.8
2018-Sep-15 01:03N 49°19' W 123°23'110.1
2018-Sep-15 01:00N 49°19' W 123°22'5 9.9
2018-Sep-15 00:30N 49°19' W 123°15'510.2
2018-Sep-15 00:03N 49°19' W 123°08'0 9.7
2018-Sep-15 00:00N 49°18' W 123°07'1 2.5
2018-Sep-14 23:30N 49°17' W 123°07'0 0.0
2018-Sep-14 23:03N 49°17' W 123°07'0 0.0
2018-Sep-14 23:00N 49°17' W 123°07'0 0.0
2018-Sep-14 22:30N 49°17' W 123°07'0 0.0
2018-Sep-14 22:00N 49°17' W 123°07'0 0.0
2018-Sep-14 21:30N 49°17' W 123°07'0 0.0
2018-Sep-14 21:03N 49°17' W 123°07'0 0.0
2018-Sep-14 21:00N 49°17' W 123°07'0 0.0
2018-Sep-14 20:30N 49°17' W 123°07'0 0.0
2018-Sep-14 20:03N 49°17' W 123°07'0 0.0
2018-Sep-14 19:57N 49°17' W 123°07'0 0.0
2018-Sep-14 19:28N 49°17' W 123°07'0 0.0
2018-Sep-14 19:01N 49°17' W 123°07'0 0.0
2018-Sep-14 18:58N 49°17' W 123°07'0 0.0
2018-Sep-14 18:27N 49°17' W 123°07'0 0.0
2018-Sep-14 18:03N 49°17' W 123°07'0 0.0
2018-Sep-14 18:00N 49°17' W 123°07'0 0.0
2018-Sep-14 17:30N 49°17' W 123°07'0 0.0
2018-Sep-14 17:02N 49°17' W 123°07'0 0.0
2018-Sep-14 16:59N 49°17' W 123°07'0 0.0
2018-Sep-14 16:29N 49°17' W 123°07'0 0.0
2018-Sep-14 16:02N 49°17' W 123°07'0 0.0
2018-Sep-14 15:59N 49°17' W 123°07'0 0.0
2018-Sep-14 15:28N 49°17' W 123°07'0 0.0
2018-Sep-14 15:03N 49°17' W 123°07'0 0.0
2018-Sep-14 15:00N 49°17' W 123°07'0 0.0
2018-Sep-14 14:28N 49°17' W 123°07'0 0.0
2018-Sep-14 14:01N 49°17' W 123°07'1 1.7
2018-Sep-14 13:30N 49°18' W 123°07'4 8.7
2018-Sep-14 13:03N 49°19' W 123°13'111.1
2018-Sep-14 13:00N 49°19' W 123°13'611.2
2018-Sep-14 12:29N 49°18' W 123°22'511.3
2018-Sep-14 12:03N 49°19' W 123°30'111.5
2018-Sep-14 12:00N 49°19' W 123°31'510.9
2018-Sep-14 11:30N 49°19' W 123°39'511.3
2018-Sep-14 11:03N 49°19' W 123°47'111.3
2018-Sep-14 11:00N 49°19' W 123°48'611.4
2018-Sep-14 10:30N 49°21' W 123°56'511.1
2018-Sep-14 10:03N 49°22' W 124°04'111.3
2018-Sep-14 10:00N 49°22' W 124°04'611.4
2018-Sep-14 09:30N 49°24' W 124°13'510.3
2018-Sep-14 09:03N 49°25' W 124°20'1 9.7
2018-Sep-14 08:59N 49°26' W 124°21'5 9.9
2018-Sep-14 08:30N 49°28' W 124°27'5 9.8
2018-Sep-14 08:01N 49°31' W 124°32'0 9.9
2018-Sep-14 07:59N 49°32' W 124°32'510.5
2018-Sep-14 07:30N 49°35' W 124°38'510.6
2018-Sep-14 07:03N 49°39' W 124°43'110.6
2018-Sep-14 07:00N 49°39' W 124°43'510.1
2018-Sep-14 06:30N 49°44' W 124°47'4 9.9
2018-Sep-14 06:03N 49°47' W 124°52'0 9.2
2018-Sep-14 06:00N 49°47' W 124°52'5 9.5
2018-Sep-14 05:29N 49°51' W 124°58'4 9.8
2018-Sep-14 05:03N 49°53' W 125°03'110.2
2018-Sep-14 05:00N 49°54' W 125°03'611.6
2018-Sep-14 04:30N 49°58' W 125°10'612.8
2018-Sep-14 04:03N 50°03' W 125°14'113.9
2018-Sep-14 04:00N 50°03' W 125°15'713.5
2018-Sep-14 03:30N 50°09' W 125°21'716.2
2018-Sep-14 03:03N 50°16' W 125°24'116.6
2018-Sep-14 03:00N 50°17' W 125°24'2412.0
2018-Sep-14 01:00N 50°24' W 126°00'1644.7 150 / 111011.010.8 13.710.412.5
2018-Sep-14 00:38N 50°30' W 126°24'518.5
2018-Sep-14 00:22N 50°30' W 126°31'514.8
2018-Sep-14 00:02N 50°31' W 126°39'115.0
2018-Sep-13 23:58N 50°32' W 126°41'814.8
2018-Sep-13 23:26N 50°38' W 126°48'718.2
2018-Sep-13 23:03N 50°42' W 126°56'118.9
2018-Sep-13 23:00N 50°43' W 126°58'918.2
2018-Sep-13 22:29N 50°46' W 127°12'818.1
2018-Sep-13 22:03N 50°49' W 127°23'118.3
2018-Sep-13 22:00N 50°49' W 127°24'918.1
2018-Sep-13 21:30N 50°54' W 127°37'817.5
2018-Sep-13 21:03N 50°58' W 127°47'118.3
2018-Sep-13 21:00N 50°59' W 127°48'917.2
2018-Sep-13 20:30N 51°03' W 128°00'817.2
2018-Sep-13 20:03N 51°07' W 128°11'117.5
2018-Sep-13 20:00N 51°07' W 128°12'816.9
2018-Sep-13 19:30N 51°12' W 128°23'715.7
2018-Sep-13 19:03N 51°15' W 128°33'117.4
2018-Sep-13 19:00N 51°16' W 128°34'917.0
2018-Sep-13 18:30N 51°20' W 128°46'817.1
2018-Sep-13 18:03N 51°25' W 128°55'117.0
2018-Sep-13 18:00N 51°26' W 128°56'816.5
2018-Sep-13 17:30N 51°32' W 129°04'816.9
2018-Sep-13 17:03N 51°39' W 129°11'116.2
2018-Sep-13 17:00N 51°39' W 129°12'816.8
2018-Sep-13 16:30N 51°47' W 129°19'817.1
2018-Sep-13 16:03N 51°53' W 129°26'117.3
2018-Sep-13 16:01N 51°54' W 129°27'917.0
2018-Sep-13 15:30N 52°01' W 129°34'816.6
2018-Sep-13 15:03N 52°07' W 129°41'116.6
2018-Sep-13 15:00N 52°08' W 129°42'18 8.9
2018-Sep-13 13:00N 52°24' W 129°54'5026.1 050 / 161010.027.0 13.010.416.5
2018-Sep-13 11:04N 53°08' W 130°35'417.3
2018-Sep-13 10:49N 53°11' W 130°38'617.1
2018-Sep-13 10:28N 53°17' W 130°42'717.3
2018-Sep-13 10:03N 53°24' W 130°45'117.2
2018-Sep-13 10:00N 53°25' W 130°45'917.2
2018-Sep-13 09:30N 53°33' W 130°49'817.2
2018-Sep-13 09:03N 53°40' W 130°53'117.1
2018-Sep-13 09:00N 53°41' W 130°54'817.0
2018-Sep-13 08:30N 53°49' W 130°59'817.0
2018-Sep-13 08:03N 53°57' W 131°00'117.5
2018-Sep-13 08:00N 53°58' W 131°01'917.0
2018-Sep-13 07:30N 54°06' W 131°02'817.1
2018-Sep-13 07:03N 54°14' W 131°02'116.7
2018-Sep-13 07:00N 54°15' W 131°01'611.9
2018-Sep-13 06:30N 54°21' W 130°60'715.4
2018-Sep-13 06:03N 54°25' W 131°08'116.5
2018-Sep-13 06:00N 54°26' W 131°09'816.2
2018-Sep-13 05:30N 54°33' W 131°17'716.2
2018-Sep-13 05:03N 54°40' W 131°15'116.0
2018-Sep-13 05:00N 54°41' W 131°15'816.3
2018-Sep-13 04:30N 54°48' W 131°10'716.0
2018-Sep-13 04:03N 54°55' W 131°07'116.4
2018-Sep-13 04:00N 54°56' W 131°07'211 8.1
2018-Sep-12 02:00N 57°48' W 134°48'29 2.4 340 / 131011.027.0 18.0 1.812.5
2018-Sep-11 13:56N 58°08' W 135°28'1 1.4
2018-Sep-11 13:27N 58°09' W 135°28'3 6.8
2018-Sep-11 13:03N 58°09' W 135°23'0 7.3
2018-Sep-11 13:00N 58°09' W 135°22'4 7.5
2018-Sep-11 12:29N 58°09' W 135°15'28 2.3
2018-Sep-11 00:00N 58°18' W 134°24'72 3.1 290 / 61005.027.0 22.0 2.712.0
2018-Sep-10 01:00N 59°24' W 135°18'76 6.0 010 / 221007.027.0 18.5 2.610.0
2018-Sep-09 12:25N 58°08' W 135°05'916.4
2018-Sep-09 11:52N 58°11' W 135°22'616.7
2018-Sep-09 11:30N 58°14' W 135°32'817.0
2018-Sep-09 11:03N 58°18' W 135°45'116.8
2018-Sep-09 11:00N 58°18' W 135°46'816.5
2018-Sep-09 10:30N 58°20' W 136°01'13914.6
2018-Sep-09 01:00N 59°30' W 139°54'   270 / 51008.027.0 19.0 2.012.5

Dump ship's entire track history